Garfield County Regional Airport
KRIL : now visible

Airfield :











YOU CAN JOIN US ON...

 
LOGIN :

Register | Disclaimer

   EN    FR    IT 

 









Legend :    VFR   Marginal VFR   IFR   Intensive IFR   Very Intensive IFR
Visi :
Ceiling :
>= 8 km
>= 3000ft
5 to 8 km
1000 to 3000 ft
1500m to 5 km
500 to 1000 ft
800 to 1500m
200 to 500 ft
< 800m
< 200 ft
Symbols :   Thunderstorms  Fog  Heavy snow  Heavy precipitations  Wind > 20 kt






- Airport Elevation : 5548 ft


KRIL - Garfield County Regional

CURRENT METAR :
  • 291253Z AUTO 11004KT 10SM FEW120 13/04 A3030 RMK AO2 SLP188 T01330044 $

EXPIRED METARs :
  • 291153Z AUTO 15003KT 10SM CLR 13/04 A3028 RMK AO2 SLP179 T01330039 10194 20128 53007 $

TAF KRIL
Valid from the 29 at 12:00 until the 30 at 12:00 UTC


291131Z 2912/3012 VRB03KT P6SM FEW200
FM292000 26013G22KT P6SM SCT100 SCT200
FM292200 26015G23KT P6SM VCTS SCT100CB SCT150
FM300200 15009KT P6SM VCTS SCT100CB
FM300600 VRB04KT P6SM SCT100 BKN200
KZDV FIR / North America



MET'MAP, your aeronautical weather chart ! - Copyright ORBIFLY December 2007 - Disclaimer

ORBIFLY MET'MAP TEAM :

Programming & Development : Alexandra Zaïnal
Original concept : Baudouin d'Aumeries
Technical & hardware support : Manuel Goepfert
Assistance : Marc-Olivier Méhu




SOURCES & CREDITS :

   NOAA       Earth
Advisory